sensor_id;sensor_type;location;lat;lon;timestamp;P1;durP1;ratioP1;P2;durP2;ratioP2
15936;SDS011;9163;48.818;8.976;2022-07-17T00:01:26;3.33;;;2.57;;
15936;SDS011;9163;48.818;8.976;2022-07-17T00:03:54;3.30;;;2.30;;
15936;SDS011;9163;48.818;8.976;2022-07-17T00:06:23;4.23;;;2.67;;
15936;SDS011;9163;48.818;8.976;2022-07-17T00:08:50;3.17;;;2.80;;
15936;SDS011;9163;48.818;8.976;2022-07-17T00:11:18;3.10;;;2.60;;
15936;SDS011;9163;48.818;8.976;2022-07-17T00:13:45;3.53;;;2.67;;
15936;SDS011;9163;48.818;8.976;2022-07-17T00:16:12;3.37;;;2.67;;
15936;SDS011;9163;48.818;8.976;2022-07-17T00:18:40;5.90;;;2.60;;
15936;SDS011;9163;48.818;8.976;2022-07-17T00:21:07;3.27;;;2.93;;
15936;SDS011;9163;48.818;8.976;2022-07-17T00:23:36;4.47;;;3.33;;
15936;SDS011;9163;48.818;8.976;2022-07-17T00:26:04;4.63;;;3.40;;
15936;SDS011;9163;48.818;8.976;2022-07-17T00:28:32;7.27;;;3.30;;
15936;SDS011;9163;48.818;8.976;2022-07-17T00:31:00;6.33;;;3.40;;
15936;SDS011;9163;48.818;8.976;2022-07-17T00:33:27;5.30;;;3.23;;
15936;SDS011;9163;48.818;8.976;2022-07-17T00:35:54;7.50;;;3.83;;
15936;SDS011;9163;48.818;8.976;2022-07-17T00:38:22;5.90;;;3.97;;
15936;SDS011;9163;48.818;8.976;2022-07-17T00:40:51;8.03;;;3.93;;
15936;SDS011;9163;48.818;8.976;2022-07-17T00:43:20;7.17;;;3.90;;
15936;SDS011;9163;48.818;8.976;2022-07-17T00:45:53;7.17;;;3.80;;
15936;SDS011;9163;48.818;8.976;2022-07-17T00:48:22;7.70;;;4.10;;
15936;SDS011;9163;48.818;8.976;2022-07-17T00:50:50;6.90;;;4.10;;
15936;SDS011;9163;48.818;8.976;2022-07-17T00:53:17;5.10;;;3.80;;
15936;SDS011;9163;48.818;8.976;2022-07-17T00:55:45;5.53;;;3.90;;
15936;SDS011;9163;48.818;8.976;2022-07-17T00:58:18;5.87;;;3.87;;
15936;SDS011;9163;48.818;8.976;2022-07-17T01:00:48;5.20;;;3.80;;
15936;SDS011;9163;48.818;8.976;2022-07-17T01:03:17;4.27;;;3.67;;
15936;SDS011;9163;48.818;8.976;2022-07-17T01:05:45;5.03;;;3.87;;
15936;SDS011;9163;48.818;8.976;2022-07-17T01:08:13;5.67;;;3.30;;
15936;SDS011;9163;48.818;8.976;2022-07-17T01:10:41;5.87;;;3.57;;
15936;SDS011;9163;48.818;8.976;2022-07-17T01:13:09;7.03;;;3.30;;
15936;SDS011;9163;48.818;8.976;2022-07-17T01:15:38;4.90;;;3.13;;
15936;SDS011;9163;48.818;8.976;2022-07-17T01:18:07;4.40;;;3.00;;
15936;SDS011;9163;48.818;8.976;2022-07-17T01:20:36;6.13;;;3.00;;
15936;SDS011;9163;48.818;8.976;2022-07-17T01:23:06;4.80;;;2.93;;
15936;SDS011;9163;48.818;8.976;2022-07-17T01:25:34;5.47;;;2.83;;
15936;SDS011;9163;48.818;8.976;2022-07-17T01:28:03;3.47;;;2.73;;
15936;SDS011;9163;48.818;8.976;2022-07-17T01:30:31;3.40;;;2.70;;
15936;SDS011;9163;48.818;8.976;2022-07-17T01:32:59;5.70;;;3.00;;
15936;SDS011;9163;48.818;8.976;2022-07-17T01:35:27;3.63;;;2.90;;
15936;SDS011;9163;48.818;8.976;2022-07-17T01:37:55;4.33;;;2.50;;
15936;SDS011;9163;48.818;8.976;2022-07-17T01:40:23;5.03;;;2.60;;
15936;SDS011;9163;48.818;8.976;2022-07-17T01:42:51;3.97;;;2.87;;
15936;SDS011;9163;48.818;8.976;2022-07-17T01:45:18;4.53;;;3.20;;
15936;SDS011;9163;48.818;8.976;2022-07-17T01:47:46;5.10;;;3.10;;
15936;SDS011;9163;48.818;8.976;2022-07-17T01:50:14;3.63;;;2.50;;
15936;SDS011;9163;48.818;8.976;2022-07-17T01:52:43;3.87;;;3.00;;
15936;SDS011;9163;48.818;8.976;2022-07-17T01:55:12;5.07;;;2.83;;
15936;SDS011;9163;48.818;8.976;2022-07-17T01:57:42;7.87;;;3.50;;
15936;SDS011;9163;48.818;8.976;2022-07-17T02:00:11;8.07;;;3.80;;
15936;SDS011;9163;48.818;8.976;2022-07-17T02:02:42;6.87;;;3.60;;
15936;SDS011;9163;48.818;8.976;2022-07-17T02:05:10;5.20;;;3.40;;
15936;SDS011;9163;48.818;8.976;2022-07-17T02:07:37;5.33;;;3.77;;
15936;SDS011;9163;48.818;8.976;2022-07-17T02:10:06;4.37;;;3.20;;
15936;SDS011;9163;48.818;8.976;2022-07-17T02:12:34;4.00;;;3.10;;
15936;SDS011;9163;48.818;8.976;2022-07-17T02:15:04;5.43;;;3.53;;
15936;SDS011;9163;48.818;8.976;2022-07-17T02:17:32;4.57;;;3.77;;
15936;SDS011;9163;48.818;8.976;2022-07-17T02:19:59;5.93;;;4.57;;
15936;SDS011;9163;48.818;8.976;2022-07-17T02:22:27;5.93;;;4.30;;
15936;SDS011;9163;48.818;8.976;2022-07-17T02:24:54;7.93;;;4.17;;
15936;SDS011;9163;48.818;8.976;2022-07-17T02:27:22;5.90;;;3.90;;
15936;SDS011;9163;48.818;8.976;2022-07-17T02:29:49;5.17;;;4.10;;
15936;SDS011;9163;48.818;8.976;2022-07-17T02:32:18;5.37;;;4.10;;
15936;SDS011;9163;48.818;8.976;2022-07-17T02:34:45;6.27;;;4.60;;
15936;SDS011;9163;48.818;8.976;2022-07-17T02:37:13;5.90;;;4.93;;
15936;SDS011;9163;48.818;8.976;2022-07-17T02:39:41;5.97;;;4.97;;
15936;SDS011;9163;48.818;8.976;2022-07-17T02:42:19;7.00;;;5.10;;
15936;SDS011;9163;48.818;8.976;2022-07-17T02:44:47;8.60;;;5.10;;
15936;SDS011;9163;48.818;8.976;2022-07-17T02:47:21;7.03;;;5.30;;
15936;SDS011;9163;48.818;8.976;2022-07-17T02:49:49;6.00;;;5.40;;
15936;SDS011;9163;48.818;8.976;2022-07-17T02:52:17;7.10;;;5.27;;
15936;SDS011;9163;48.818;8.976;2022-07-17T02:54:45;5.90;;;5.37;;
15936;SDS011;9163;48.818;8.976;2022-07-17T02:57:13;6.90;;;5.60;;
15936;SDS011;9163;48.818;8.976;2022-07-17T02:59:40;7.83;;;5.70;;
15936;SDS011;9163;48.818;8.976;2022-07-17T03:02:08;6.20;;;4.80;;
15936;SDS011;9163;48.818;8.976;2022-07-17T03:04:37;5.37;;;4.80;;
15936;SDS011;9163;48.818;8.976;2022-07-17T03:07:04;4.97;;;4.23;;
15936;SDS011;9163;48.818;8.976;2022-07-17T03:09:32;4.83;;;3.93;;
15936;SDS011;9163;48.818;8.976;2022-07-17T03:11:59;3.43;;;3.13;;
15936;SDS011;9163;48.818;8.976;2022-07-17T03:14:27;3.83;;;3.20;;
15936;SDS011;9163;48.818;8.976;2022-07-17T03:16:54;3.83;;;3.33;;
15936;SDS011;9163;48.818;8.976;2022-07-17T03:19:21;3.57;;;2.93;;
15936;SDS011;9163;48.818;8.976;2022-07-17T03:21:50;5.33;;;3.93;;
15936;SDS011;9163;48.818;8.976;2022-07-17T03:24:17;6.93;;;3.90;;
15936;SDS011;9163;48.818;8.976;2022-07-17T03:26:45;5.00;;;4.50;;
15936;SDS011;9163;48.818;8.976;2022-07-17T03:29:12;7.23;;;5.00;;
15936;SDS011;9163;48.818;8.976;2022-07-17T03:31:42;5.70;;;5.10;;
15936;SDS011;9163;48.818;8.976;2022-07-17T03:34:10;7.93;;;4.80;;
15936;SDS011;9163;48.818;8.976;2022-07-17T03:36:37;5.63;;;4.60;;
15936;SDS011;9163;48.818;8.976;2022-07-17T03:39:06;6.03;;;5.20;;
15936;SDS011;9163;48.818;8.976;2022-07-17T03:41:34;5.33;;;4.80;;
15936;SDS011;9163;48.818;8.976;2022-07-17T03:44:02;6.70;;;4.97;;
15936;SDS011;9163;48.818;8.976;2022-07-17T03:46:29;6.20;;;5.10;;
15936;SDS011;9163;48.818;8.976;2022-07-17T03:48:56;7.63;;;4.77;;
15936;SDS011;9163;48.818;8.976;2022-07-17T03:51:24;6.77;;;5.10;;
15936;SDS011;9163;48.818;8.976;2022-07-17T03:53:52;6.50;;;4.83;;
15936;SDS011;9163;48.818;8.976;2022-07-17T03:56:20;7.40;;;4.50;;
15936;SDS011;9163;48.818;8.976;2022-07-17T03:58:48;4.43;;;3.60;;
15936;SDS011;9163;48.818;8.976;2022-07-17T04:01:15;4.90;;;3.77;;
15936;SDS011;9163;48.818;8.976;2022-07-17T04:03:43;4.33;;;3.93;;
15936;SDS011;9163;48.818;8.976;2022-07-17T04:06:10;5.63;;;4.13;;
15936;SDS011;9163;48.818;8.976;2022-07-17T04:08:38;5.67;;;4.13;;
15936;SDS011;9163;48.818;8.976;2022-07-17T04:11:05;7.13;;;3.97;;
15936;SDS011;9163;48.818;8.976;2022-07-17T04:13:34;5.00;;;3.80;;
15936;SDS011;9163;48.818;8.976;2022-07-17T04:16:02;4.73;;;4.23;;
15936;SDS011;9163;48.818;8.976;2022-07-17T04:18:30;4.80;;;3.80;;
15936;SDS011;9163;48.818;8.976;2022-07-17T04:21:00;5.37;;;3.80;;
15936;SDS011;9163;48.818;8.976;2022-07-17T04:23:29;4.03;;;3.00;;
15936;SDS011;9163;48.818;8.976;2022-07-17T04:25:56;5.77;;;3.50;;
15936;SDS011;9163;48.818;8.976;2022-07-17T04:28:24;5.50;;;3.30;;
15936;SDS011;9163;48.818;8.976;2022-07-17T04:30:53;5.00;;;3.57;;
15936;SDS011;9163;48.818;8.976;2022-07-17T04:33:20;4.83;;;3.37;;
15936;SDS011;9163;48.818;8.976;2022-07-17T04:35:47;5.53;;;3.30;;
15936;SDS011;9163;48.818;8.976;2022-07-17T04:38:15;5.80;;;3.40;;
15936;SDS011;9163;48.818;8.976;2022-07-17T04:40:42;3.90;;;3.47;;
15936;SDS011;9163;48.818;8.976;2022-07-17T04:43:12;4.37;;;3.50;;
15936;SDS011;9163;48.818;8.976;2022-07-17T04:45:39;4.13;;;3.50;;
15936;SDS011;9163;48.818;8.976;2022-07-17T04:48:08;4.83;;;3.70;;
15936;SDS011;9163;48.818;8.976;2022-07-17T04:50:35;4.53;;;4.13;;
15936;SDS011;9163;48.818;8.976;2022-07-17T04:53:03;6.27;;;3.80;;
15936;SDS011;9163;48.818;8.976;2022-07-17T04:55:30;6.23;;;4.00;;
15936;SDS011;9163;48.818;8.976;2022-07-17T04:57:58;4.43;;;4.03;;
15936;SDS011;9163;48.818;8.976;2022-07-17T05:00:25;4.97;;;4.13;;
15936;SDS011;9163;48.818;8.976;2022-07-17T05:02:53;4.83;;;4.30;;
15936;SDS011;9163;48.818;8.976;2022-07-17T05:05:22;5.87;;;4.53;;
15936;SDS011;9163;48.818;8.976;2022-07-17T05:07:50;5.53;;;4.83;;
15936;SDS011;9163;48.818;8.976;2022-07-17T05:10:18;5.73;;;4.10;;
15936;SDS011;9163;48.818;8.976;2022-07-17T05:12:46;5.33;;;4.30;;
15936;SDS011;9163;48.818;8.976;2022-07-17T05:15:13;6.67;;;5.20;;
15936;SDS011;9163;48.818;8.976;2022-07-17T05:17:41;8.63;;;5.97;;
15936;SDS011;9163;48.818;8.976;2022-07-17T05:20:08;11.03;;;6.10;;
15936;SDS011;9163;48.818;8.976;2022-07-17T05:22:37;7.43;;;5.53;;
15936;SDS011;9163;48.818;8.976;2022-07-17T05:25:05;7.10;;;5.70;;
15936;SDS011;9163;48.818;8.976;2022-07-17T05:27:33;7.50;;;6.00;;
15936;SDS011;9163;48.818;8.976;2022-07-17T05:30:01;6.07;;;5.40;;
15936;SDS011;9163;48.818;8.976;2022-07-17T05:32:29;8.50;;;5.73;;
15936;SDS011;9163;48.818;8.976;2022-07-17T05:34:56;6.23;;;5.63;;
15936;SDS011;9163;48.818;8.976;2022-07-17T05:37:23;8.70;;;6.27;;
15936;SDS011;9163;48.818;8.976;2022-07-17T05:39:52;8.47;;;5.73;;
15936;SDS011;9163;48.818;8.976;2022-07-17T05:42:19;7.40;;;5.70;;
15936;SDS011;9163;48.818;8.976;2022-07-17T05:44:47;8.47;;;5.53;;
15936;SDS011;9163;48.818;8.976;2022-07-17T05:47:14;8.00;;;5.73;;
15936;SDS011;9163;48.818;8.976;2022-07-17T05:49:42;7.63;;;6.10;;
15936;SDS011;9163;48.818;8.976;2022-07-17T05:52:09;7.50;;;5.67;;
15936;SDS011;9163;48.818;8.976;2022-07-17T05:54:36;7.73;;;5.90;;
15936;SDS011;9163;48.818;8.976;2022-07-17T05:57:05;6.07;;;5.40;;
15936;SDS011;9163;48.818;8.976;2022-07-17T05:59:33;6.70;;;5.97;;
15936;SDS011;9163;48.818;8.976;2022-07-17T06:02:00;8.23;;;5.50;;
15936;SDS011;9163;48.818;8.976;2022-07-17T06:04:28;6.57;;;5.60;;
15936;SDS011;9163;48.818;8.976;2022-07-17T06:06:55;7.77;;;5.47;;
15936;SDS011;9163;48.818;8.976;2022-07-17T06:09:22;7.23;;;4.83;;
15936;SDS011;9163;48.818;8.976;2022-07-17T06:11:50;5.60;;;5.00;;
15936;SDS011;9163;48.818;8.976;2022-07-17T06:14:18;5.13;;;4.50;;
15936;SDS011;9163;48.818;8.976;2022-07-17T06:16:46;5.57;;;4.70;;
15936;SDS011;9163;48.818;8.976;2022-07-17T06:19:13;5.90;;;3.77;;
15936;SDS011;9163;48.818;8.976;2022-07-17T06:21:42;4.27;;;3.50;;
15936;SDS011;9163;48.818;8.976;2022-07-17T06:24:10;3.93;;;3.40;;
15936;SDS011;9163;48.818;8.976;2022-07-17T06:26:37;5.87;;;3.17;;
15936;SDS011;9163;48.818;8.976;2022-07-17T06:29:05;4.20;;;3.10;;
15936;SDS011;9163;48.818;8.976;2022-07-17T06:31:33;3.67;;;3.27;;
15936;SDS011;9163;48.818;8.976;2022-07-17T06:34:01;4.97;;;3.13;;
15936;SDS011;9163;48.818;8.976;2022-07-17T06:36:28;5.23;;;3.17;;
15936;SDS011;9163;48.818;8.976;2022-07-17T06:38:56;4.47;;;2.90;;
15936;SDS011;9163;48.818;8.976;2022-07-17T06:41:23;3.30;;;2.80;;
15936;SDS011;9163;48.818;8.976;2022-07-17T06:43:50;4.03;;;3.17;;
15936;SDS011;9163;48.818;8.976;2022-07-17T06:46:18;3.17;;;2.80;;
15936;SDS011;9163;48.818;8.976;2022-07-17T06:48:47;4.97;;;3.03;;
15936;SDS011;9163;48.818;8.976;2022-07-17T06:51:16;5.93;;;3.27;;
15936;SDS011;9163;48.818;8.976;2022-07-17T06:53:44;4.07;;;3.13;;
15936;SDS011;9163;48.818;8.976;2022-07-17T06:56:11;4.37;;;3.00;;
15936;SDS011;9163;48.818;8.976;2022-07-17T06:58:38;3.97;;;2.70;;
15936;SDS011;9163;48.818;8.976;2022-07-17T07:01:06;4.30;;;2.80;;
15936;SDS011;9163;48.818;8.976;2022-07-17T07:03:33;4.37;;;2.70;;
15936;SDS011;9163;48.818;8.976;2022-07-17T07:06:02;4.87;;;2.73;;
15936;SDS011;9163;48.818;8.976;2022-07-17T07:08:30;3.80;;;2.47;;
15936;SDS011;9163;48.818;8.976;2022-07-17T07:10:57;4.87;;;2.70;;
15936;SDS011;9163;48.818;8.976;2022-07-17T07:13:25;2.80;;;2.53;;
15936;SDS011;9163;48.818;8.976;2022-07-17T07:15:52;4.63;;;2.67;;
15936;SDS011;9163;48.818;8.976;2022-07-17T07:18:20;5.77;;;2.70;;
15936;SDS011;9163;48.818;8.976;2022-07-17T07:20:47;3.47;;;2.90;;
15936;SDS011;9163;48.818;8.976;2022-07-17T07:23:16;4.17;;;2.53;;
15936;SDS011;9163;48.818;8.976;2022-07-17T07:25:44;2.60;;;2.40;;
15936;SDS011;9163;48.818;8.976;2022-07-17T07:28:12;3.97;;;2.57;;
15936;SDS011;9163;48.818;8.976;2022-07-17T07:30:39;4.10;;;2.60;;
15936;SDS011;9163;48.818;8.976;2022-07-17T07:33:07;5.07;;;2.60;;
15936;SDS011;9163;48.818;8.976;2022-07-17T07:35:34;4.33;;;2.37;;
15936;SDS011;9163;48.818;8.976;2022-07-17T07:38:02;2.40;;;2.10;;
15936;SDS011;9163;48.818;8.976;2022-07-17T07:40:31;4.53;;;2.50;;
15936;SDS011;9163;48.818;8.976;2022-07-17T07:42:58;2.65;;;2.45;;
15936;SDS011;9163;48.818;8.976;2022-07-17T07:45:26;3.20;;;2.50;;
15936;SDS011;9163;48.818;8.976;2022-07-17T07:47:54;3.40;;;2.30;;
15936;SDS011;9163;48.818;8.976;2022-07-17T07:50:22;3.28;;;2.50;;
15936;SDS011;9163;48.818;8.976;2022-07-17T07:52:50;3.08;;;2.50;;
15936;SDS011;9163;48.818;8.976;2022-07-17T07:55:19;4.37;;;2.80;;
15936;SDS011;9163;48.818;8.976;2022-07-17T07:57:48;4.30;;;2.60;;
15936;SDS011;9163;48.818;8.976;2022-07-17T08:00:16;4.63;;;2.60;;
15936;SDS011;9163;48.818;8.976;2022-07-17T08:02:44;3.25;;;2.55;;
15936;SDS011;9163;48.818;8.976;2022-07-17T08:05:11;3.85;;;2.35;;
15936;SDS011;9163;48.818;8.976;2022-07-17T08:07:38;2.95;;;2.67;;
15936;SDS011;9163;48.818;8.976;2022-07-17T08:10:06;2.60;;;2.40;;
15936;SDS011;9163;48.818;8.976;2022-07-17T08:12:34;3.35;;;2.60;;
15936;SDS011;9163;48.818;8.976;2022-07-17T08:15:03;6.60;;;2.40;;
15936;SDS011;9163;48.818;8.976;2022-07-17T08:17:31;3.95;;;2.42;;
15936;SDS011;9163;48.818;8.976;2022-07-17T08:19:58;4.88;;;2.80;;
15936;SDS011;9163;48.818;8.976;2022-07-17T08:22:26;4.18;;;2.50;;
15936;SDS011;9163;48.818;8.976;2022-07-17T08:24:53;3.97;;;2.00;;
15936;SDS011;9163;48.818;8.976;2022-07-17T08:27:20;4.72;;;2.30;;
15936;SDS011;9163;48.818;8.976;2022-07-17T08:29:48;6.07;;;2.50;;
15936;SDS011;9163;48.818;8.976;2022-07-17T08:32:17;2.83;;;2.15;;
15936;SDS011;9163;48.818;8.976;2022-07-17T08:34:44;4.60;;;2.10;;
15936;SDS011;9163;48.818;8.976;2022-07-17T08:37:12;4.25;;;2.35;;
15936;SDS011;9163;48.818;8.976;2022-07-17T08:39:40;3.25;;;2.28;;
15936;SDS011;9163;48.818;8.976;2022-07-17T08:42:07;4.65;;;2.55;;
15936;SDS011;9163;48.818;8.976;2022-07-17T08:44:35;3.85;;;2.42;;
15936;SDS011;9163;48.818;8.976;2022-07-17T08:47:02;4.50;;;2.50;;
15936;SDS011;9163;48.818;8.976;2022-07-17T08:49:33;3.55;;;2.28;;
15936;SDS011;9163;48.818;8.976;2022-07-17T08:52:03;3.15;;;2.15;;
15936;SDS011;9163;48.818;8.976;2022-07-17T08:54:31;3.65;;;2.30;;
15936;SDS011;9163;48.818;8.976;2022-07-17T08:56:58;6.30;;;2.45;;
15936;SDS011;9163;48.818;8.976;2022-07-17T08:59:26;4.60;;;2.40;;
15936;SDS011;9163;48.818;8.976;2022-07-17T09:01:53;6.53;;;2.40;;
15936;SDS011;9163;48.818;8.976;2022-07-17T09:04:20;3.38;;;2.45;;
15936;SDS011;9163;48.818;8.976;2022-07-17T09:06:58;4.20;;;2.50;;
15936;SDS011;9163;48.818;8.976;2022-07-17T09:09:27;2.60;;;2.40;;
15936;SDS011;9163;48.818;8.976;2022-07-17T09:11:55;2.58;;;2.10;;
15936;SDS011;9163;48.818;8.976;2022-07-17T09:14:35;3.80;;;2.00;;
15936;SDS011;9163;48.818;8.976;2022-07-17T09:17:04;3.15;;;1.85;;
15936;SDS011;9163;48.818;8.976;2022-07-17T09:19:34;2.00;;;1.80;;
15936;SDS011;9163;48.818;8.976;2022-07-17T09:22:09;5.07;;;2.08;;
15936;SDS011;9163;48.818;8.976;2022-07-17T09:24:42;2.00;;;1.80;;
15936;SDS011;9163;48.818;8.976;2022-07-17T09:27:11;2.30;;;1.70;;
15936;SDS011;9163;48.818;8.976;2022-07-17T09:29:50;2.08;;;1.88;;
15936;SDS011;9163;48.818;8.976;2022-07-17T09:32:19;2.28;;;1.80;;
15936;SDS011;9163;48.818;8.976;2022-07-17T09:34:49;3.90;;;1.88;;
15936;SDS011;9163;48.818;8.976;2022-07-17T09:37:18;3.67;;;1.83;;
15936;SDS011;9163;48.818;8.976;2022-07-17T09:39:47;3.15;;;1.77;;
15936;SDS011;9163;48.818;8.976;2022-07-17T09:42:21;2.30;;;1.60;;
15936;SDS011;9163;48.818;8.976;2022-07-17T09:44:57;1.95;;;1.58;;
15936;SDS011;9163;48.818;8.976;2022-07-17T09:47:26;3.15;;;1.55;;
15936;SDS011;9163;48.818;8.976;2022-07-17T09:49:55;3.58;;;1.50;;
15936;SDS011;9163;48.818;8.976;2022-07-17T09:52:26;3.47;;;1.60;;
15936;SDS011;9163;48.818;8.976;2022-07-17T09:54:56;2.72;;;1.40;;
15936;SDS011;9163;48.818;8.976;2022-07-17T09:57:25;3.70;;;1.63;;
15936;SDS011;9163;48.818;8.976;2022-07-17T09:59:54;2.17;;;1.70;;
15936;SDS011;9163;48.818;8.976;2022-07-17T10:02:24;3.15;;;1.60;;
15936;SDS011;9163;48.818;8.976;2022-07-17T10:04:52;4.03;;;1.60;;
15936;SDS011;9163;48.818;8.976;2022-07-17T10:07:20;1.88;;;1.50;;
15936;SDS011;9163;48.818;8.976;2022-07-17T10:09:50;3.42;;;1.55;;
15936;SDS011;9163;48.818;8.976;2022-07-17T10:12:17;2.42;;;1.40;;
15936;SDS011;9163;48.818;8.976;2022-07-17T10:14:46;3.17;;;1.80;;
15936;SDS011;9163;48.818;8.976;2022-07-17T10:17:18;2.45;;;1.30;;
15936;SDS011;9163;48.818;8.976;2022-07-17T10:19:47;1.67;;;1.30;;
15936;SDS011;9163;48.818;8.976;2022-07-17T10:22:16;2.05;;;1.23;;
15936;SDS011;9163;48.818;8.976;2022-07-17T10:24:44;1.90;;;1.50;;
15936;SDS011;9163;48.818;8.976;2022-07-17T10:27:21;2.38;;;1.33;;
15936;SDS011;9163;48.818;8.976;2022-07-17T10:30:02;1.67;;;1.55;;
15936;SDS011;9163;48.818;8.976;2022-07-17T10:32:50;2.22;;;1.50;;
15936;SDS011;9163;48.818;8.976;2022-07-17T10:35:18;2.80;;;1.33;;
15936;SDS011;9163;48.818;8.976;2022-07-17T10:37:46;1.75;;;1.30;;
15936;SDS011;9163;48.818;8.976;2022-07-17T10:40:15;2.50;;;1.40;;
15936;SDS011;9163;48.818;8.976;2022-07-17T10:42:52;2.50;;;1.50;;
15936;SDS011;9163;48.818;8.976;2022-07-17T10:45:24;1.65;;;1.55;;
15936;SDS011;9163;48.818;8.976;2022-07-17T10:47:59;2.92;;;1.50;;
15936;SDS011;9163;48.818;8.976;2022-07-17T10:50:29;1.75;;;1.50;;
15936;SDS011;9163;48.818;8.976;2022-07-17T10:55:49;1.85;;;1.48;;
15936;SDS011;9163;48.818;8.976;2022-07-17T10:58:20;1.73;;;1.40;;
15936;SDS011;9163;48.818;8.976;2022-07-17T11:00:56;2.65;;;1.40;;
15936;SDS011;9163;48.818;8.976;2022-07-17T11:03:25;2.83;;;1.40;;
15936;SDS011;9163;48.818;8.976;2022-07-17T11:05:53;3.35;;;1.40;;
15936;SDS011;9163;48.818;8.976;2022-07-17T11:08:20;3.28;;;1.40;;
15936;SDS011;9163;48.818;8.976;2022-07-17T11:10:48;1.42;;;1.25;;
15936;SDS011;9163;48.818;8.976;2022-07-17T11:13:16;2.33;;;1.38;;
15936;SDS011;9163;48.818;8.976;2022-07-17T11:15:45;2.22;;;1.10;;
15936;SDS011;9163;48.818;8.976;2022-07-17T11:18:14;2.22;;;1.60;;
15936;SDS011;9163;48.818;8.976;2022-07-17T11:20:50;1.88;;;1.40;;
15936;SDS011;9163;48.818;8.976;2022-07-17T11:23:18;3.22;;;1.23;;
15936;SDS011;9163;48.818;8.976;2022-07-17T11:25:51;1.60;;;1.35;;
15936;SDS011;9163;48.818;8.976;2022-07-17T11:28:32;2.33;;;1.23;;
15936;SDS011;9163;48.818;8.976;2022-07-17T11:31:03;2.65;;;1.50;;
15936;SDS011;9163;48.818;8.976;2022-07-17T11:33:52;2.55;;;1.30;;
15936;SDS011;9163;48.818;8.976;2022-07-17T11:36:28;1.55;;;1.40;;
15936;SDS011;9163;48.818;8.976;2022-07-17T11:38:59;1.92;;;1.20;;
15936;SDS011;9163;48.818;8.976;2022-07-17T11:41:33;1.50;;;1.40;;
15936;SDS011;9163;48.818;8.976;2022-07-17T11:44:02;1.88;;;1.30;;
15936;SDS011;9163;48.818;8.976;2022-07-17T11:46:32;1.30;;;1.20;;
15936;SDS011;9163;48.818;8.976;2022-07-17T11:49:00;3.83;;;1.40;;
15936;SDS011;9163;48.818;8.976;2022-07-17T11:51:34;2.58;;;1.25;;
15936;SDS011;9163;48.818;8.976;2022-07-17T11:54:05;2.88;;;1.40;;
15936;SDS011;9163;48.818;8.976;2022-07-17T11:56:34;1.90;;;1.35;;
15936;SDS011;9163;48.818;8.976;2022-07-17T11:59:02;1.15;;;1.05;;
15936;SDS011;9163;48.818;8.976;2022-07-17T12:01:38;5.63;;;1.42;;
15936;SDS011;9163;48.818;8.976;2022-07-17T12:04:07;2.00;;;1.10;;
15936;SDS011;9163;48.818;8.976;2022-07-17T12:06:36;1.63;;;1.30;;
15936;SDS011;9163;48.818;8.976;2022-07-17T12:09:03;2.70;;;1.10;;
15936;SDS011;9163;48.818;8.976;2022-07-17T12:11:31;2.45;;;1.20;;
15936;SDS011;9163;48.818;8.976;2022-07-17T12:14:03;1.77;;;1.40;;
15936;SDS011;9163;48.818;8.976;2022-07-17T12:16:33;1.30;;;1.20;;
15936;SDS011;9163;48.818;8.976;2022-07-17T12:19:08;2.10;;;1.38;;
15936;SDS011;9163;48.818;8.976;2022-07-17T12:21:50;1.77;;;1.17;;
15936;SDS011;9163;48.818;8.976;2022-07-17T12:24:23;2.28;;;1.40;;
15936;SDS011;9163;48.818;8.976;2022-07-17T12:26:53;1.65;;;1.30;;
15936;SDS011;9163;48.818;8.976;2022-07-17T12:29:21;1.17;;;1.08;;
15936;SDS011;9163;48.818;8.976;2022-07-17T12:31:51;2.90;;;1.33;;
15936;SDS011;9163;48.818;8.976;2022-07-17T12:34:28;3.30;;;1.20;;
15936;SDS011;9163;48.818;8.976;2022-07-17T12:36:56;1.55;;;1.25;;
15936;SDS011;9163;48.818;8.976;2022-07-17T12:39:23;1.30;;;1.20;;
15936;SDS011;9163;48.818;8.976;2022-07-17T12:41:51;1.60;;;1.20;;
15936;SDS011;9163;48.818;8.976;2022-07-17T12:44:18;1.48;;;1.38;;
15936;SDS011;9163;48.818;8.976;2022-07-17T12:46:45;1.77;;;1.30;;
15936;SDS011;9163;48.818;8.976;2022-07-17T12:49:13;1.70;;;1.60;;
15936;SDS011;9163;48.818;8.976;2022-07-17T12:51:42;2.55;;;1.20;;
15936;SDS011;9163;48.818;8.976;2022-07-17T12:54:11;1.83;;;1.30;;
15936;SDS011;9163;48.818;8.976;2022-07-17T12:56:41;1.40;;;1.17;;
15936;SDS011;9163;48.818;8.976;2022-07-17T12:59:10;1.60;;;1.33;;
15936;SDS011;9163;48.818;8.976;2022-07-17T13:01:37;2.30;;;1.20;;
15936;SDS011;9163;48.818;8.976;2022-07-17T13:04:05;1.52;;;1.30;;
15936;SDS011;9163;48.818;8.976;2022-07-17T13:06:32;2.30;;;1.27;;
15936;SDS011;9163;48.818;8.976;2022-07-17T13:09:01;1.20;;;1.10;;
15936;SDS011;9163;48.818;8.976;2022-07-17T13:11:29;1.30;;;1.20;;
15936;SDS011;9163;48.818;8.976;2022-07-17T13:13:56;1.88;;;1.30;;
15936;SDS011;9163;48.818;8.976;2022-07-17T13:16:24;3.90;;;1.30;;
15936;SDS011;9163;48.818;8.976;2022-07-17T13:18:52;3.40;;;1.40;;
15936;SDS011;9163;48.818;8.976;2022-07-17T13:21:19;2.03;;;1.63;;
15936;SDS011;9163;48.818;8.976;2022-07-17T13:23:46;1.95;;;1.55;;
15936;SDS011;9163;48.818;8.976;2022-07-17T13:26:15;3.00;;;1.30;;
15936;SDS011;9163;48.818;8.976;2022-07-17T13:28:43;1.30;;;1.20;;
15936;SDS011;9163;48.818;8.976;2022-07-17T13:31:11;2.08;;;1.30;;
15936;SDS011;9163;48.818;8.976;2022-07-17T13:33:39;2.95;;;1.38;;
15936;SDS011;9163;48.818;8.976;2022-07-17T13:36:06;4.47;;;1.42;;
15936;SDS011;9163;48.818;8.976;2022-07-17T13:38:34;2.47;;;1.30;;
15936;SDS011;9163;48.818;8.976;2022-07-17T13:41:01;3.05;;;1.15;;
15936;SDS011;9163;48.818;8.976;2022-07-17T13:43:30;1.80;;;1.60;;
15936;SDS011;9163;48.818;8.976;2022-07-17T13:45:58;2.33;;;1.30;;
15936;SDS011;9163;48.818;8.976;2022-07-17T13:48:26;3.08;;;1.30;;
15936;SDS011;9163;48.818;8.976;2022-07-17T13:50:53;1.45;;;1.27;;
15936;SDS011;9163;48.818;8.976;2022-07-17T13:53:20;1.50;;;1.40;;
15936;SDS011;9163;48.818;8.976;2022-07-17T13:55:50;1.67;;;1.50;;
15936;SDS011;9163;48.818;8.976;2022-07-17T13:58:17;1.48;;;1.38;;
15936;SDS011;9163;48.818;8.976;2022-07-17T14:00:46;2.22;;;1.30;;
15936;SDS011;9163;48.818;8.976;2022-07-17T14:03:14;2.42;;;1.50;;
15936;SDS011;9163;48.818;8.976;2022-07-17T14:05:41;2.25;;;1.38;;
15936;SDS011;9163;48.818;8.976;2022-07-17T14:08:09;2.00;;;1.23;;
15936;SDS011;9163;48.818;8.976;2022-07-17T14:10:37;1.67;;;1.45;;
15936;SDS011;9163;48.818;8.976;2022-07-17T14:13:04;1.70;;;1.30;;
15936;SDS011;9163;48.818;8.976;2022-07-17T14:15:32;3.53;;;1.50;;
15936;SDS011;9163;48.818;8.976;2022-07-17T14:18:01;1.63;;;1.45;;
15936;SDS011;9163;48.818;8.976;2022-07-17T14:20:28;2.28;;;1.38;;
15936;SDS011;9163;48.818;8.976;2022-07-17T14:22:56;1.50;;;1.40;;
15936;SDS011;9163;48.818;8.976;2022-07-17T14:25:23;2.58;;;1.60;;
15936;SDS011;9163;48.818;8.976;2022-07-17T14:27:51;2.22;;;1.45;;
15936;SDS011;9163;48.818;8.976;2022-07-17T14:30:18;2.95;;;1.38;;
15936;SDS011;9163;48.818;8.976;2022-07-17T14:32:46;2.25;;;1.40;;
15936;SDS011;9163;48.818;8.976;2022-07-17T14:35:14;2.08;;;1.50;;
15936;SDS011;9163;48.818;8.976;2022-07-17T14:37:42;1.40;;;1.20;;
15936;SDS011;9163;48.818;8.976;2022-07-17T14:40:10;2.42;;;1.40;;
15936;SDS011;9163;48.818;8.976;2022-07-17T14:42:38;2.65;;;1.20;;
15936;SDS011;9163;48.818;8.976;2022-07-17T14:45:06;2.08;;;1.33;;
15936;SDS011;9163;48.818;8.976;2022-07-17T14:47:34;3.85;;;1.50;;
15936;SDS011;9163;48.818;8.976;2022-07-17T14:50:02;1.42;;;1.33;;
15936;SDS011;9163;48.818;8.976;2022-07-17T14:52:31;1.45;;;1.35;;
15936;SDS011;9163;48.818;8.976;2022-07-17T14:54:58;2.28;;;1.30;;
15936;SDS011;9163;48.818;8.976;2022-07-17T14:57:26;3.40;;;1.60;;
15936;SDS011;9163;48.818;8.976;2022-07-17T14:59:53;3.47;;;1.50;;
15936;SDS011;9163;48.818;8.976;2022-07-17T15:02:21;1.52;;;1.30;;
15936;SDS011;9163;48.818;8.976;2022-07-17T15:04:48;3.60;;;1.40;;
15936;SDS011;9163;48.818;8.976;2022-07-17T15:07:16;1.27;;;1.17;;
15936;SDS011;9163;48.818;8.976;2022-07-17T15:09:44;2.63;;;1.30;;
15936;SDS011;9163;48.818;8.976;2022-07-17T15:12:12;5.00;;;1.48;;